sensor_id;sensor_type;location;lat;lon;timestamp;P1;durP1;ratioP1;P2;durP2;ratioP2
2522;SDS011;1272;53.332;9.860;2023-03-11T00:01:48;13.67;;;10.57;;
2522;SDS011;1272;53.332;9.860;2023-03-11T00:04:14;18.37;;;12.33;;
2522;SDS011;1272;53.332;9.860;2023-03-11T00:06:40;14.77;;;12.97;;
2522;SDS011;1272;53.332;9.860;2023-03-11T00:09:06;12.40;;;11.10;;
2522;SDS011;1272;53.332;9.860;2023-03-11T00:11:31;14.50;;;11.60;;
2522;SDS011;1272;53.332;9.860;2023-03-11T00:13:57;12.33;;;11.03;;
2522;SDS011;1272;53.332;9.860;2023-03-11T00:16:23;16.40;;;11.67;;
2522;SDS011;1272;53.332;9.860;2023-03-11T00:18:49;19.63;;;13.90;;
2522;SDS011;1272;53.332;9.860;2023-03-11T00:21:16;16.80;;;12.50;;
2522;SDS011;1272;53.332;9.860;2023-03-11T00:23:43;20.40;;;14.27;;
2522;SDS011;1272;53.332;9.860;2023-03-11T00:26:09;20.63;;;13.27;;
2522;SDS011;1272;53.332;9.860;2023-03-11T00:28:35;20.13;;;13.60;;
2522;SDS011;1272;53.332;9.860;2023-03-11T00:31:01;18.83;;;14.53;;
2522;SDS011;1272;53.332;9.860;2023-03-11T00:33:26;21.30;;;13.63;;
2522;SDS011;1272;53.332;9.860;2023-03-11T00:35:52;19.00;;;13.53;;
2522;SDS011;1272;53.332;9.860;2023-03-11T00:38:18;21.67;;;14.57;;
2522;SDS011;1272;53.332;9.860;2023-03-11T00:40:45;23.00;;;15.10;;
2522;SDS011;1272;53.332;9.860;2023-03-11T00:43:11;24.57;;;14.70;;
2522;SDS011;1272;53.332;9.860;2023-03-11T00:45:37;23.50;;;15.80;;
2522;SDS011;1272;53.332;9.860;2023-03-11T00:48:03;27.13;;;15.73;;
2522;SDS011;1272;53.332;9.860;2023-03-11T00:50:30;29.63;;;16.80;;
2522;SDS011;1272;53.332;9.860;2023-03-11T00:52:58;32.70;;;19.37;;
2522;SDS011;1272;53.332;9.860;2023-03-11T00:55:25;26.10;;;17.83;;
2522;SDS011;1272;53.332;9.860;2023-03-11T00:57:53;34.80;;;21.23;;
2522;SDS011;1272;53.332;9.860;2023-03-11T01:00:21;30.53;;;20.13;;
2522;SDS011;1272;53.332;9.860;2023-03-11T01:02:49;29.83;;;18.43;;
2522;SDS011;1272;53.332;9.860;2023-03-11T01:05:17;35.17;;;20.67;;
2522;SDS011;1272;53.332;9.860;2023-03-11T01:07:44;39.67;;;23.90;;
2522;SDS011;1272;53.332;9.860;2023-03-11T01:10:10;33.80;;;20.33;;
2522;SDS011;1272;53.332;9.860;2023-03-11T01:12:36;36.90;;;22.83;;
2522;SDS011;1272;53.332;9.860;2023-03-11T01:15:02;33.47;;;21.13;;
2522;SDS011;1272;53.332;9.860;2023-03-11T01:17:29;35.97;;;22.00;;
2522;SDS011;1272;53.332;9.860;2023-03-11T01:19:55;33.80;;;19.53;;
2522;SDS011;1272;53.332;9.860;2023-03-11T01:22:21;33.30;;;21.20;;
2522;SDS011;1272;53.332;9.860;2023-03-11T01:24:46;32.87;;;19.57;;
2522;SDS011;1272;53.332;9.860;2023-03-11T01:27:12;34.70;;;20.93;;
2522;SDS011;1272;53.332;9.860;2023-03-11T01:29:38;30.53;;;18.43;;
2522;SDS011;1272;53.332;9.860;2023-03-11T01:32:04;34.33;;;20.63;;
2522;SDS011;1272;53.332;9.860;2023-03-11T01:34:30;29.37;;;19.87;;
2522;SDS011;1272;53.332;9.860;2023-03-11T01:36:59;31.00;;;20.30;;
2522;SDS011;1272;53.332;9.860;2023-03-11T01:39:26;37.17;;;19.43;;
2522;SDS011;1272;53.332;9.860;2023-03-11T01:41:52;31.50;;;19.07;;
2522;SDS011;1272;53.332;9.860;2023-03-11T01:44:17;31.03;;;20.27;;
2522;SDS011;1272;53.332;9.860;2023-03-11T01:49:18;31.90;;;19.50;;
2522;SDS011;1272;53.332;9.860;2023-03-11T01:51:46;30.20;;;20.23;;
2522;SDS011;1272;53.332;9.860;2023-03-11T01:54:19;31.50;;;20.80;;
2522;SDS011;1272;53.332;9.860;2023-03-11T01:56:57;29.07;;;18.90;;
2522;SDS011;1272;53.332;9.860;2023-03-11T01:59:28;33.63;;;20.57;;
2522;SDS011;1272;53.332;9.860;2023-03-11T02:04:49;36.23;;;21.63;;
2522;SDS011;1272;53.332;9.860;2023-03-11T02:07:15;34.63;;;21.40;;
2522;SDS011;1272;53.332;9.860;2023-03-11T02:09:41;32.23;;;21.13;;
2522;SDS011;1272;53.332;9.860;2023-03-11T02:12:07;36.60;;;22.63;;
2522;SDS011;1272;53.332;9.860;2023-03-11T02:14:35;37.53;;;22.60;;
2522;SDS011;1272;53.332;9.860;2023-03-11T02:17:04;33.67;;;21.00;;
2522;SDS011;1272;53.332;9.860;2023-03-11T02:22:14;33.30;;;20.73;;
2522;SDS011;1272;53.332;9.860;2023-03-11T02:24:45;37.10;;;20.50;;
2522;SDS011;1272;53.332;9.860;2023-03-11T02:27:18;31.93;;;19.90;;
2522;SDS011;1272;53.332;9.860;2023-03-11T02:29:45;32.00;;;20.67;;
2522;SDS011;1272;53.332;9.860;2023-03-11T02:32:13;29.83;;;21.10;;
2522;SDS011;1272;53.332;9.860;2023-03-11T02:34:39;32.67;;;20.20;;
2522;SDS011;1272;53.332;9.860;2023-03-11T02:37:07;31.33;;;18.20;;
2522;SDS011;1272;53.332;9.860;2023-03-11T02:39:38;31.30;;;19.20;;
2522;SDS011;1272;53.332;9.860;2023-03-11T02:42:05;26.17;;;18.87;;
2522;SDS011;1272;53.332;9.860;2023-03-11T02:44:37;29.70;;;17.70;;
2522;SDS011;1272;53.332;9.860;2023-03-11T02:47:06;26.63;;;17.17;;
2522;SDS011;1272;53.332;9.860;2023-03-11T02:49:32;28.60;;;17.90;;
2522;SDS011;1272;53.332;9.860;2023-03-11T02:51:59;31.73;;;18.43;;
2522;SDS011;1272;53.332;9.860;2023-03-11T02:54:25;34.37;;;19.07;;
2522;SDS011;1272;53.332;9.860;2023-03-11T02:56:50;33.07;;;20.27;;
2522;SDS011;1272;53.332;9.860;2023-03-11T02:59:16;30.90;;;19.07;;
2522;SDS011;1272;53.332;9.860;2023-03-11T03:01:42;31.77;;;19.80;;
2522;SDS011;1272;53.332;9.860;2023-03-11T03:04:07;30.93;;;19.93;;
2522;SDS011;1272;53.332;9.860;2023-03-11T03:06:33;32.80;;;20.40;;
2522;SDS011;1272;53.332;9.860;2023-03-11T03:08:59;36.00;;;19.60;;
2522;SDS011;1272;53.332;9.860;2023-03-11T03:11:24;32.63;;;19.43;;
2522;SDS011;1272;53.332;9.860;2023-03-11T03:13:50;35.70;;;23.30;;
2522;SDS011;1272;53.332;9.860;2023-03-11T03:16:16;35.47;;;20.40;;
2522;SDS011;1272;53.332;9.860;2023-03-11T03:18:42;34.77;;;21.63;;
2522;SDS011;1272;53.332;9.860;2023-03-11T03:21:07;37.40;;;21.80;;
2522;SDS011;1272;53.332;9.860;2023-03-11T03:23:33;35.37;;;20.33;;
2522;SDS011;1272;53.332;9.860;2023-03-11T03:26:01;35.80;;;21.90;;
2522;SDS011;1272;53.332;9.860;2023-03-11T03:28:28;34.93;;;21.93;;
2522;SDS011;1272;53.332;9.860;2023-03-11T03:30:54;32.93;;;21.43;;
2522;SDS011;1272;53.332;9.860;2023-03-11T03:33:19;32.63;;;20.00;;
2522;SDS011;1272;53.332;9.860;2023-03-11T03:35:45;33.87;;;20.17;;
2522;SDS011;1272;53.332;9.860;2023-03-11T03:38:11;31.70;;;18.90;;
2522;SDS011;1272;53.332;9.860;2023-03-11T03:40:37;37.50;;;19.93;;
2522;SDS011;1272;53.332;9.860;2023-03-11T03:43:03;32.17;;;18.03;;
2522;SDS011;1272;53.332;9.860;2023-03-11T03:45:29;31.83;;;18.17;;
2522;SDS011;1272;53.332;9.860;2023-03-11T03:47:55;30.97;;;17.70;;
2522;SDS011;1272;53.332;9.860;2023-03-11T03:50:21;29.90;;;18.63;;
2522;SDS011;1272;53.332;9.860;2023-03-11T03:52:47;27.07;;;17.27;;
2522;SDS011;1272;53.332;9.860;2023-03-11T03:55:12;28.97;;;18.30;;
2522;SDS011;1272;53.332;9.860;2023-03-11T03:57:39;31.67;;;19.00;;
2522;SDS011;1272;53.332;9.860;2023-03-11T04:00:05;34.47;;;19.80;;
2522;SDS011;1272;53.332;9.860;2023-03-11T04:02:33;31.57;;;19.00;;
2522;SDS011;1272;53.332;9.860;2023-03-11T04:04:59;27.60;;;17.80;;
2522;SDS011;1272;53.332;9.860;2023-03-11T04:07:25;29.00;;;18.27;;
2522;SDS011;1272;53.332;9.860;2023-03-11T04:09:51;27.20;;;17.57;;
2522;SDS011;1272;53.332;9.860;2023-03-11T04:12:16;32.93;;;19.30;;
2522;SDS011;1272;53.332;9.860;2023-03-11T04:14:42;26.80;;;17.40;;
2522;SDS011;1272;53.332;9.860;2023-03-11T04:17:12;29.17;;;17.50;;
2522;SDS011;1272;53.332;9.860;2023-03-11T04:19:38;28.13;;;18.03;;
2522;SDS011;1272;53.332;9.860;2023-03-11T04:22:04;29.83;;;17.17;;
2522;SDS011;1272;53.332;9.860;2023-03-11T04:24:30;26.53;;;17.23;;
2522;SDS011;1272;53.332;9.860;2023-03-11T04:26:55;30.10;;;18.00;;
2522;SDS011;1272;53.332;9.860;2023-03-11T04:29:21;26.40;;;17.10;;
2522;SDS011;1272;53.332;9.860;2023-03-11T04:31:47;36.93;;;19.67;;
2522;SDS011;1272;53.332;9.860;2023-03-11T04:34:12;33.00;;;19.30;;
2522;SDS011;1272;53.332;9.860;2023-03-11T04:36:38;32.03;;;21.00;;
2522;SDS011;1272;53.332;9.860;2023-03-11T04:39:04;37.70;;;20.20;;
2522;SDS011;1272;53.332;9.860;2023-03-11T04:41:29;30.53;;;18.67;;
2522;SDS011;1272;53.332;9.860;2023-03-11T04:43:55;31.33;;;19.50;;
2522;SDS011;1272;53.332;9.860;2023-03-11T04:46:22;34.90;;;21.40;;
2522;SDS011;1272;53.332;9.860;2023-03-11T04:48:48;29.83;;;19.90;;
2522;SDS011;1272;53.332;9.860;2023-03-11T04:51:13;32.67;;;18.90;;
2522;SDS011;1272;53.332;9.860;2023-03-11T04:53:39;31.10;;;19.20;;
2522;SDS011;1272;53.332;9.860;2023-03-11T04:56:05;30.30;;;18.10;;
2522;SDS011;1272;53.332;9.860;2023-03-11T04:58:31;32.13;;;18.23;;
2522;SDS011;1272;53.332;9.860;2023-03-11T05:00:56;30.60;;;19.27;;
2522;SDS011;1272;53.332;9.860;2023-03-11T05:03:22;29.37;;;18.83;;
2522;SDS011;1272;53.332;9.860;2023-03-11T05:05:48;30.80;;;18.30;;
2522;SDS011;1272;53.332;9.860;2023-03-11T05:08:14;26.60;;;18.17;;
2522;SDS011;1272;53.332;9.860;2023-03-11T05:10:39;28.27;;;18.33;;
2522;SDS011;1272;53.332;9.860;2023-03-11T05:13:06;29.63;;;18.30;;
2522;SDS011;1272;53.332;9.860;2023-03-11T05:15:32;26.80;;;17.13;;
2522;SDS011;1272;53.332;9.860;2023-03-11T05:17:58;26.30;;;17.17;;
2522;SDS011;1272;53.332;9.860;2023-03-11T05:20:24;28.60;;;17.27;;
2522;SDS011;1272;53.332;9.860;2023-03-11T05:22:50;26.53;;;17.13;;
2522;SDS011;1272;53.332;9.860;2023-03-11T05:25:15;25.97;;;16.20;;
2522;SDS011;1272;53.332;9.860;2023-03-11T05:27:41;30.83;;;16.57;;
2522;SDS011;1272;53.332;9.860;2023-03-11T05:30:07;25.50;;;15.97;;
2522;SDS011;1272;53.332;9.860;2023-03-11T05:32:33;25.57;;;14.80;;
2522;SDS011;1272;53.332;9.860;2023-03-11T05:34:59;21.13;;;14.73;;
2522;SDS011;1272;53.332;9.860;2023-03-11T05:37:25;23.67;;;15.80;;
2522;SDS011;1272;53.332;9.860;2023-03-11T05:39:51;21.43;;;14.80;;
2522;SDS011;1272;53.332;9.860;2023-03-11T05:42:17;23.73;;;14.63;;
2522;SDS011;1272;53.332;9.860;2023-03-11T05:44:43;22.60;;;15.07;;
2522;SDS011;1272;53.332;9.860;2023-03-11T05:47:09;20.30;;;13.80;;
2522;SDS011;1272;53.332;9.860;2023-03-11T05:49:34;18.73;;;12.97;;
2522;SDS011;1272;53.332;9.860;2023-03-11T05:52:00;19.73;;;13.63;;
2522;SDS011;1272;53.332;9.860;2023-03-11T05:54:26;17.60;;;12.20;;
2522;SDS011;1272;53.332;9.860;2023-03-11T05:56:51;16.90;;;12.10;;
2522;SDS011;1272;53.332;9.860;2023-03-11T05:59:18;16.33;;;11.67;;
2522;SDS011;1272;53.332;9.860;2023-03-11T06:01:44;18.20;;;10.80;;
2522;SDS011;1272;53.332;9.860;2023-03-11T06:04:10;17.70;;;11.80;;
2522;SDS011;1272;53.332;9.860;2023-03-11T06:06:37;12.57;;;10.70;;
2522;SDS011;1272;53.332;9.860;2023-03-11T06:09:05;15.53;;;11.20;;
2522;SDS011;1272;53.332;9.860;2023-03-11T06:11:31;13.60;;;10.90;;
2522;SDS011;1272;53.332;9.860;2023-03-11T06:13:57;17.27;;;11.40;;
2522;SDS011;1272;53.332;9.860;2023-03-11T06:16:23;17.87;;;11.50;;
2522;SDS011;1272;53.332;9.860;2023-03-11T06:18:50;16.30;;;11.13;;
2522;SDS011;1272;53.332;9.860;2023-03-11T06:21:17;18.10;;;11.77;;
2522;SDS011;1272;53.332;9.860;2023-03-11T06:23:47;15.67;;;10.50;;
2522;SDS011;1272;53.332;9.860;2023-03-11T06:26:14;14.80;;;11.10;;
2522;SDS011;1272;53.332;9.860;2023-03-11T06:28:44;15.50;;;11.07;;
2522;SDS011;1272;53.332;9.860;2023-03-11T06:31:15;13.20;;;10.53;;
2522;SDS011;1272;53.332;9.860;2023-03-11T06:33:43;15.20;;;10.83;;
2522;SDS011;1272;53.332;9.860;2023-03-11T06:36:09;12.50;;;10.20;;
2522;SDS011;1272;53.332;9.860;2023-03-11T06:38:37;12.90;;;10.20;;
2522;SDS011;1272;53.332;9.860;2023-03-11T06:41:04;13.33;;;9.50;;
2522;SDS011;1272;53.332;9.860;2023-03-11T06:43:32;13.40;;;9.90;;
2522;SDS011;1272;53.332;9.860;2023-03-11T06:45:58;10.40;;;9.10;;
2522;SDS011;1272;53.332;9.860;2023-03-11T06:48:25;15.10;;;11.13;;
2522;SDS011;1272;53.332;9.860;2023-03-11T06:50:54;12.03;;;9.20;;
2522;SDS011;1272;53.332;9.860;2023-03-11T06:53:21;9.50;;;8.30;;
2522;SDS011;1272;53.332;9.860;2023-03-11T06:58:42;12.37;;;9.00;;
2522;SDS011;1272;53.332;9.860;2023-03-11T07:01:09;10.93;;;8.80;;
2522;SDS011;1272;53.332;9.860;2023-03-11T07:03:39;11.67;;;8.90;;
2522;SDS011;1272;53.332;9.860;2023-03-11T07:06:06;11.00;;;8.03;;
2522;SDS011;1272;53.332;9.860;2023-03-11T07:08:39;10.80;;;8.43;;
2522;SDS011;1272;53.332;9.860;2023-03-11T07:11:06;12.00;;;8.57;;
2522;SDS011;1272;53.332;9.860;2023-03-11T07:13:41;10.60;;;8.20;;
2522;SDS011;1272;53.332;9.860;2023-03-11T07:16:11;11.40;;;8.63;;
2522;SDS011;1272;53.332;9.860;2023-03-11T07:18:40;9.50;;;8.53;;
2522;SDS011;1272;53.332;9.860;2023-03-11T07:21:07;8.60;;;7.30;;
2522;SDS011;1272;53.332;9.860;2023-03-11T07:23:33;14.30;;;7.93;;
2522;SDS011;1272;53.332;9.860;2023-03-11T07:26:00;9.70;;;8.33;;
2522;SDS011;1272;53.332;9.860;2023-03-11T07:28:26;12.03;;;8.10;;
2522;SDS011;1272;53.332;9.860;2023-03-11T07:30:52;9.90;;;8.23;;
2522;SDS011;1272;53.332;9.860;2023-03-11T07:33:19;13.00;;;9.23;;
2522;SDS011;1272;53.332;9.860;2023-03-11T07:35:48;11.00;;;7.97;;
2522;SDS011;1272;53.332;9.860;2023-03-11T07:38:14;10.80;;;8.17;;
2522;SDS011;1272;53.332;9.860;2023-03-11T07:40:43;12.53;;;9.10;;
2522;SDS011;1272;53.332;9.860;2023-03-11T07:43:09;10.93;;;8.97;;
2522;SDS011;1272;53.332;9.860;2023-03-11T07:45:36;11.10;;;8.47;;
2522;SDS011;1272;53.332;9.860;2023-03-11T07:48:02;13.27;;;9.30;;
2522;SDS011;1272;53.332;9.860;2023-03-11T07:50:27;11.10;;;8.00;;
2522;SDS011;1272;53.332;9.860;2023-03-11T07:52:53;10.47;;;8.90;;
2522;SDS011;1272;53.332;9.860;2023-03-11T07:55:19;12.23;;;10.03;;
2522;SDS011;1272;53.332;9.860;2023-03-11T07:57:48;12.47;;;8.67;;
2522;SDS011;1272;53.332;9.860;2023-03-11T08:00:15;14.27;;;8.80;;
2522;SDS011;1272;53.332;9.860;2023-03-11T08:02:41;11.93;;;8.80;;
2522;SDS011;1272;53.332;9.860;2023-03-11T08:05:07;11.50;;;8.73;;
2522;SDS011;1272;53.332;9.860;2023-03-11T08:07:33;11.17;;;9.20;;
2522;SDS011;1272;53.332;9.860;2023-03-11T08:09:59;10.43;;;8.40;;
2522;SDS011;1272;53.332;9.860;2023-03-11T08:12:24;13.67;;;9.73;;
2522;SDS011;1272;53.332;9.860;2023-03-11T08:14:50;14.70;;;9.53;;
2522;SDS011;1272;53.332;9.860;2023-03-11T08:17:16;9.47;;;7.83;;
2522;SDS011;1272;53.332;9.860;2023-03-11T08:19:41;8.33;;;7.53;;
2522;SDS011;1272;53.332;9.860;2023-03-11T08:22:07;11.00;;;8.73;;
2522;SDS011;1272;53.332;9.860;2023-03-11T08:24:33;12.37;;;8.80;;
2522;SDS011;1272;53.332;9.860;2023-03-11T08:26:59;9.23;;;7.93;;
2522;SDS011;1272;53.332;9.860;2023-03-11T08:29:25;10.27;;;7.60;;
2522;SDS011;1272;53.332;9.860;2023-03-11T08:31:51;11.47;;;8.83;;
2522;SDS011;1272;53.332;9.860;2023-03-11T08:34:16;13.40;;;8.30;;
2522;SDS011;1272;53.332;9.860;2023-03-11T08:36:42;10.33;;;9.00;;
2522;SDS011;1272;53.332;9.860;2023-03-11T08:39:08;11.97;;;8.40;;
2522;SDS011;1272;53.332;9.860;2023-03-11T08:41:34;9.67;;;7.43;;
2522;SDS011;1272;53.332;9.860;2023-03-11T08:43:59;9.63;;;8.00;;
2522;SDS011;1272;53.332;9.860;2023-03-11T08:46:27;9.50;;;7.93;;
2522;SDS011;1272;53.332;9.860;2023-03-11T08:48:58;10.90;;;7.90;;
2522;SDS011;1272;53.332;9.860;2023-03-11T08:51:25;10.40;;;7.60;;
2522;SDS011;1272;53.332;9.860;2023-03-11T08:53:52;8.70;;;7.13;;
2522;SDS011;1272;53.332;9.860;2023-03-11T08:56:18;9.97;;;7.57;;
2522;SDS011;1272;53.332;9.860;2023-03-11T08:58:45;8.60;;;6.87;;
2522;SDS011;1272;53.332;9.860;2023-03-11T09:01:11;8.30;;;6.97;;
2522;SDS011;1272;53.332;9.860;2023-03-11T09:03:37;9.37;;;6.67;;
2522;SDS011;1272;53.332;9.860;2023-03-11T09:06:04;7.97;;;6.50;;
2522;SDS011;1272;53.332;9.860;2023-03-11T09:08:32;9.07;;;7.27;;
2522;SDS011;1272;53.332;9.860;2023-03-11T09:10:58;7.80;;;6.33;;
2522;SDS011;1272;53.332;9.860;2023-03-11T09:13:24;7.50;;;6.00;;
2522;SDS011;1272;53.332;9.860;2023-03-11T09:15:50;10.43;;;6.70;;
2522;SDS011;1272;53.332;9.860;2023-03-11T09:18:16;6.83;;;6.13;;
2522;SDS011;1272;53.332;9.860;2023-03-11T09:20:43;8.47;;;6.40;;
2522;SDS011;1272;53.332;9.860;2023-03-11T09:23:10;8.93;;;6.53;;
2522;SDS011;1272;53.332;9.860;2023-03-11T09:25:38;9.00;;;6.43;;
2522;SDS011;1272;53.332;9.860;2023-03-11T09:28:03;7.33;;;6.40;;
2522;SDS011;1272;53.332;9.860;2023-03-11T09:30:30;7.90;;;6.17;;
2522;SDS011;1272;53.332;9.860;2023-03-11T09:32:56;8.30;;;5.80;;
2522;SDS011;1272;53.332;9.860;2023-03-11T09:35:22;6.90;;;6.07;;
2522;SDS011;1272;53.332;9.860;2023-03-11T09:37:48;8.20;;;5.13;;
2522;SDS011;1272;53.332;9.860;2023-03-11T09:40:14;7.00;;;5.60;;
2522;SDS011;1272;53.332;9.860;2023-03-11T09:42:44;5.30;;;4.60;;
2522;SDS011;1272;53.332;9.860;2023-03-11T09:45:35;7.93;;;5.00;;
2522;SDS011;1272;53.332;9.860;2023-03-11T09:48:23;9.33;;;4.83;;
2522;SDS011;1272;53.332;9.860;2023-03-11T09:53:45;5.97;;;5.37;;
2522;SDS011;1272;53.332;9.860;2023-03-11T09:56:15;5.60;;;4.13;;
2522;SDS011;1272;53.332;9.860;2023-03-11T10:01:20;5.30;;;4.53;;
2522;SDS011;1272;53.332;9.860;2023-03-11T10:03:51;12.03;;;6.10;;
2522;SDS011;1272;53.332;9.860;2023-03-11T10:06:21;6.83;;;5.23;;
2522;SDS011;1272;53.332;9.860;2023-03-11T10:08:53;10.57;;;4.47;;
2522;SDS011;1272;53.332;9.860;2023-03-11T10:16:28;5.03;;;4.63;;
2522;SDS011;1272;53.332;9.860;2023-03-11T10:25:02;9.03;;;4.43;;
2522;SDS011;1272;53.332;9.860;2023-03-11T10:27:45;4.10;;;3.30;;
2522;SDS011;1272;53.332;9.860;2023-03-11T10:30:22;5.43;;;4.20;;
2522;SDS011;1272;53.332;9.860;2023-03-11T10:35:52;4.37;;;3.93;;
2522;SDS011;1272;53.332;9.860;2023-03-11T10:38:30;4.43;;;3.70;;
2522;SDS011;1272;53.332;9.860;2023-03-11T10:41:01;7.23;;;3.80;;
2522;SDS011;1272;53.332;9.860;2023-03-11T10:43:32;4.67;;;4.00;;
2522;SDS011;1272;53.332;9.860;2023-03-11T10:46:08;4.30;;;3.90;;
2522;SDS011;1272;53.332;9.860;2023-03-11T10:48:48;5.50;;;3.97;;
2522;SDS011;1272;53.332;9.860;2023-03-11T10:51:15;4.23;;;3.93;;
2522;SDS011;1272;53.332;9.860;2023-03-11T10:56:34;3.17;;;2.87;;
2522;SDS011;1272;53.332;9.860;2023-03-11T10:59:00;5.90;;;3.83;;
2522;SDS011;1272;53.332;9.860;2023-03-11T11:01:28;5.90;;;3.37;;
2522;SDS011;1272;53.332;9.860;2023-03-11T11:03:55;3.93;;;3.37;;
2522;SDS011;1272;53.332;9.860;2023-03-11T11:08:49;3.83;;;3.53;;
2522;SDS011;1272;53.332;9.860;2023-03-11T11:11:40;4.03;;;3.60;;
2522;SDS011;1272;53.332;9.860;2023-03-11T11:14:07;4.17;;;2.40;;
2522;SDS011;1272;53.332;9.860;2023-03-11T11:16:34;5.53;;;3.57;;
2522;SDS011;1272;53.332;9.860;2023-03-11T11:19:12;5.60;;;3.37;;
2522;SDS011;1272;53.332;9.860;2023-03-11T11:21:40;3.20;;;2.50;;
2522;SDS011;1272;53.332;9.860;2023-03-11T11:29:36;6.53;;;3.60;;
2522;SDS011;1272;53.332;9.860;2023-03-11T11:34:41;5.40;;;4.00;;
2522;SDS011;1272;53.332;9.860;2023-03-11T11:37:08;3.20;;;2.90;;
2522;SDS011;1272;53.332;9.860;2023-03-11T11:39:46;9.20;;;3.40;;
2522;SDS011;1272;53.332;9.860;2023-03-11T11:42:18;7.70;;;3.23;;
2522;SDS011;1272;53.332;9.860;2023-03-11T11:44:46;4.10;;;3.60;;
2522;SDS011;1272;53.332;9.860;2023-03-11T11:47:16;5.10;;;3.60;;
2522;SDS011;1272;53.332;9.860;2023-03-11T11:49:51;3.73;;;3.40;;
2522;SDS011;1272;53.332;9.860;2023-03-11T11:52:23;3.40;;;3.00;;
2522;SDS011;1272;53.332;9.860;2023-03-11T11:55:02;5.20;;;3.20;;
2522;SDS011;1272;53.332;9.860;2023-03-11T11:57:49;4.43;;;3.57;;
2522;SDS011;1272;53.332;9.860;2023-03-11T12:00:27;3.70;;;3.20;;
2522;SDS011;1272;53.332;9.860;2023-03-11T12:05:57;3.23;;;2.00;;
2522;SDS011;1272;53.332;9.860;2023-03-11T12:11:12;3.43;;;2.73;;
2522;SDS011;1272;53.332;9.860;2023-03-11T12:16:14;5.00;;;2.40;;
2522;SDS011;1272;53.332;9.860;2023-03-11T12:24:34;4.13;;;2.53;;
2522;SDS011;1272;53.332;9.860;2023-03-11T12:29:48;6.63;;;2.80;;
2522;SDS011;1272;53.332;9.860;2023-03-11T12:32:33;2.90;;;2.47;;
2522;SDS011;1272;53.332;9.860;2023-03-11T12:45:49;3.77;;;2.57;;
2522;SDS011;1272;53.332;9.860;2023-03-11T12:48:23;3.20;;;2.40;;
2522;SDS011;1272;53.332;9.860;2023-03-11T12:53:51;3.40;;;2.63;;
2522;SDS011;1272;53.332;9.860;2023-03-11T12:56:24;3.50;;;2.67;;
2522;SDS011;1272;53.332;9.860;2023-03-11T13:10:00;2.30;;;1.87;;
2522;SDS011;1272;53.332;9.860;2023-03-11T13:12:40;4.73;;;2.00;;
2522;SDS011;1272;53.332;9.860;2023-03-11T13:17:56;5.93;;;1.90;;
2522;SDS011;1272;53.332;9.860;2023-03-11T13:23:07;2.73;;;2.00;;
2522;SDS011;1272;53.332;9.860;2023-03-11T13:33:41;3.17;;;1.97;;
2522;SDS011;1272;53.332;9.860;2023-03-11T13:41:45;2.97;;;1.80;;
2522;SDS011;1272;53.332;9.860;2023-03-11T13:44:34;7.43;;;2.40;;
2522;SDS011;1272;53.332;9.860;2023-03-11T13:47:08;3.90;;;1.83;;
2522;SDS011;1272;53.332;9.860;2023-03-11T13:49:52;4.43;;;2.07;;
2522;SDS011;1272;53.332;9.860;2023-03-11T13:52:24;3.03;;;1.60;;
2522;SDS011;1272;53.332;9.860;2023-03-11T13:55:16;6.63;;;2.10;;
2522;SDS011;1272;53.332;9.860;2023-03-11T13:57:55;4.67;;;1.80;;
2522;SDS011;1272;53.332;9.860;2023-03-11T14:00:23;2.97;;;2.30;;
2522;SDS011;1272;53.332;9.860;2023-03-11T14:03:00;3.20;;;1.77;;
2522;SDS011;1272;53.332;9.860;2023-03-11T14:05:32;3.33;;;2.23;;
2522;SDS011;1272;53.332;9.860;2023-03-11T14:08:19;5.07;;;2.10;;
2522;SDS011;1272;53.332;9.860;2023-03-11T14:10:56;3.87;;;2.10;;
2522;SDS011;1272;53.332;9.860;2023-03-11T14:13:44;2.70;;;2.13;;
2522;SDS011;1272;53.332;9.860;2023-03-11T14:16:18;6.47;;;2.27;;
2522;SDS011;1272;53.332;9.860;2023-03-11T14:21:48;1.60;;;1.50;;
2522;SDS011;1272;53.332;9.860;2023-03-11T14:24:16;3.03;;;2.30;;
2522;SDS011;1272;53.332;9.860;2023-03-11T14:26:53;6.50;;;2.20;;
2522;SDS011;1272;53.332;9.860;2023-03-11T14:31:57;5.40;;;1.93;;
2522;SDS011;1272;53.332;9.860;2023-03-11T14:34:24;2.80;;;1.73;;
2522;SDS011;1272;53.332;9.860;2023-03-11T14:36:53;2.70;;;2.17;;
2522;SDS011;1272;53.332;9.860;2023-03-11T14:39:37;1.90;;;1.80;;
2522;SDS011;1272;53.332;9.860;2023-03-11T14:45:14;2.40;;;1.90;;
2522;SDS011;1272;53.332;9.860;2023-03-11T14:47:43;2.20;;;2.00;;
2522;SDS011;1272;53.332;9.860;2023-03-11T14:50:18;7.30;;;2.90;;
2522;SDS011;1272;53.332;9.860;2023-03-11T14:52:55;7.83;;;2.23;;
2522;SDS011;1272;53.332;9.860;2023-03-11T14:55:38;4.33;;;1.97;;
2522;SDS011;1272;53.332;9.860;2023-03-11T15:03:47;5.50;;;1.90;;
2522;SDS011;1272;53.332;9.860;2023-03-11T15:06:31;2.53;;;2.33;;
2522;SDS011;1272;53.332;9.860;2023-03-11T15:09:04;4.70;;;2.50;;
2522;SDS011;1272;53.332;9.860;2023-03-11T15:11:46;2.33;;;1.90;;
2522;SDS011;1272;53.332;9.860;2023-03-11T15:19:45;4.00;;;2.33;;
2522;SDS011;1272;53.332;9.860;2023-03-11T15:25:20;5.40;;;2.17;;
2522;SDS011;1272;53.332;9.860;2023-03-11T15:27:46;3.23;;;2.37;;
2522;SDS011;1272;53.332;9.860;2023-03-11T15:30:21;2.67;;;2.40;;
2522;SDS011;1272;53.332;9.860;2023-03-11T15:32:47;4.57;;;2.33;;
2522;SDS011;1272;53.332;9.860;2023-03-11T15:37:47;4.70;;;1.93;;
2522;SDS011;1272;53.332;9.860;2023-03-11T15:40:22;6.20;;;2.57;;
2522;SDS011;1272;53.332;9.860;2023-03-11T15:45:55;7.07;;;2.07;;
2522;SDS011;1272;53.332;9.860;2023-03-11T15:48:24;4.93;;;2.17;;
2522;SDS011;1272;53.332;9.860;2023-03-11T15:50:55;6.00;;;2.10;;
2522;SDS011;1272;53.332;9.860;2023-03-11T15:53:23;5.00;;;2.80;;
2522;SDS011;1272;53.332;9.860;2023-03-11T15:55:51;3.90;;;2.30;;
2522;SDS011;1272;53.332;9.860;2023-03-11T15:58:21;5.77;;;2.03;;
2522;SDS011;1272;53.332;9.860;2023-03-11T16:00:50;3.70;;;2.73;;
2522;SDS011;1272;53.332;9.860;2023-03-11T16:03:17;7.90;;;2.33;;
2522;SDS011;1272;53.332;9.860;2023-03-11T16:05:44;10.87;;;2.50;;
2522;SDS011;1272;53.332;9.860;2023-03-11T16:08:10;8.37;;;2.40;;
2522;SDS011;1272;53.332;9.860;2023-03-11T16:10:36;5.57;;;2.27;;
2522;SDS011;1272;53.332;9.860;2023-03-11T16:13:02;2.93;;;2.30;;
2522;SDS011;1272;53.332;9.860;2023-03-11T16:15:30;6.63;;;2.20;;
2522;SDS011;1272;53.332;9.860;2023-03-11T16:17:58;3.57;;;2.30;;
2522;SDS011;1272;53.332;9.860;2023-03-11T16:20:26;1.97;;;1.77;;
2522;SDS011;1272;53.332;9.860;2023-03-11T16:22:57;4.40;;;1.97;;
2522;SDS011;1272;53.332;9.860;2023-03-11T16:25:29;2.20;;;2.10;;
2522;SDS011;1272;53.332;9.860;2023-03-11T16:27:58;6.53;;;2.40;;
2522;SDS011;1272;53.332;9.860;2023-03-11T16:30:25;3.60;;;1.80;;
2522;SDS011;1272;53.332;9.860;2023-03-11T16:32:52;4.07;;;2.20;;
2522;SDS011;1272;53.332;9.860;2023-03-11T16:35:18;2.13;;;1.90;;
2522;SDS011;1272;53.332;9.860;2023-03-11T16:37:44;2.30;;;2.20;;
2522;SDS011;1272;53.332;9.860;2023-03-11T16:40:11;4.50;;;2.97;;
2522;SDS011;1272;53.332;9.860;2023-03-11T16:42:39;3.93;;;2.50;;
2522;SDS011;1272;53.332;9.860;2023-03-11T16:45:05;5.23;;;2.30;;
2522;SDS011;1272;53.332;9.860;2023-03-11T16:47:31;3.47;;;2.83;;
2522;SDS011;1272;53.332;9.860;2023-03-11T16:49:56;2.90;;;2.57;;
2522;SDS011;1272;53.332;9.860;2023-03-11T16:52:22;2.20;;;2.00;;
2522;SDS011;1272;53.332;9.860;2023-03-11T16:54:48;4.53;;;2.70;;
2522;SDS011;1272;53.332;9.860;2023-03-11T16:57:14;6.60;;;2.17;;
2522;SDS011;1272;53.332;9.860;2023-03-11T16:59:40;4.03;;;2.23;;
2522;SDS011;1272;53.332;9.860;2023-03-11T17:02:05;4.20;;;2.40;;
2522;SDS011;1272;53.332;9.860;2023-03-11T17:04:33;6.90;;;2.77;;
2522;SDS011;1272;53.332;9.860;2023-03-11T17:07:02;4.43;;;2.53;;
2522;SDS011;1272;53.332;9.860;2023-03-11T17:09:29;4.03;;;2.80;;
2522;SDS011;1272;53.332;9.860;2023-03-11T17:11:55;4.40;;;2.70;;
2522;SDS011;1272;53.332;9.860;2023-03-11T17:14:21;2.77;;;2.57;;
2522;SDS011;1272;53.332;9.860;2023-03-11T17:16:48;3.10;;;2.80;;
2522;SDS011;1272;53.332;9.860;2023-03-11T17:19:16;3.37;;;2.70;;
2522;SDS011;1272;53.332;9.860;2023-03-11T17:21:42;4.20;;;3.00;;